This is the latest recevied weather packets stored in our database for station/object DL7KST-13. If no packets are shown the sender has not sent any weather packets the latest 10 day(s).
| Time | Temp. | Humidity | Pressure | Rain* | Wind** | Luminosity | Snow |
|---|---|---|---|---|---|---|---|
| 1777835589 | 18.33° C | 53% | 1000.3 hPa | 0 mm | 0 m/s | - | - |
| 1777834384 | 19.44° C | 52% | 1000.4 hPa | 0 mm | 0 m/s | - | - |
| 1777833179 | 20° C | 47% | 1000.2 hPa | 0 mm | 0 m/s | - | - |
| 1777831973 | 21.11° C | 42% | 1000.2 hPa | 0 mm | 0 m/s | - | - |
| 1777830768 | 22.78° C | 37% | 1000.3 hPa | 0 mm | 0 m/s | - | - |
| 1777829564 | 23.89° C | 35% | 1000.3 hPa | 0 mm | 0 m/s | - | - |
| 1777827154 | 26.11° C | 29% | 1000.3 hPa | 0 mm | 0 m/s | - | - |
| 1777825949 | 26.11° C | 30% | 1000.2 hPa | 0 mm | 0 m/s | - | - |
| 1777824743 | 26.67° C | 28% | 1000.5 hPa | 0 mm | 0.45 m/s, 318° | - | - |
| 1777823538 | 26.11° C | 29% | 1000.5 hPa | 0 mm | 0.45 m/s, 313° | - | - |
| 1777822333 | 26.67° C | 29% | 1000.6 hPa | 0 mm | 0 m/s | - | - |
| 1777821128 | 26.67° C | 27% | 1000.9 hPa | 0 mm | 0 m/s | - | - |
| 1777819925 | 27.22° C | 25% | 1001 hPa | 0 mm | 0 m/s | - | - |
| 1777818719 | 26.67° C | 28% | 1001.1 hPa | 0 mm | 0.45 m/s, 291° | - | - |
| 1777817513 | 26.11° C | 29% | 1001.3 hPa | 0 mm | 0 m/s | - | - |
| 1777816308 | 27.22° C | 26% | 1001.6 hPa | 0 mm | 0.45 m/s, 301° | - | - |
| 1777815142 | 27.78° C | 26% | 1001.8 hPa | 0 mm | 0.89 m/s, 293° | - | - |
| 1777815103 | 27.78° C | 26% | 1001.8 hPa | 0 mm | 0.89 m/s, 293° | - | - |
| 1777813898 | 27.22° C | 27% | 1001.9 hPa | 0 mm | 0.45 m/s, 296° | - | - |
| 1777812693 | 27.22° C | 28% | 1002.1 hPa | 0 mm | 0.45 m/s, 269° | - | - |
| 1777811488 | 27.22° C | 27% | 1002.2 hPa | 0 mm | 0 m/s | - | - |
| 1777810284 | 27.78° C | 27% | 1002.3 hPa | 0 mm | 0.45 m/s, 301° | - | - |
| 1777809079 | 28.33° C | 25% | 1002.4 hPa | 0 mm | 0.89 m/s, 302° | - | - |
| 1777807873 | 28.33° C | 28% | 1002.7 hPa | 0 mm | 0 m/s | - | - |
| 1777806669 | 27.78° C | 25% | 1003 hPa | 0 mm | 0.45 m/s, 19° | - | - |
* Rain latest hour (hover to see other rain measurements)
** Current wind speed in m/s (hover to see current wind gust speed)